createdAt,value
2023-03-29T00:00:37.578Z,9.37
2023-03-29T00:03:05.886Z,8.90
2023-03-29T00:05:36.061Z,9.97
2023-03-29T00:08:05.499Z,9.47
2023-03-29T00:10:34.312Z,10.70
2023-03-29T00:13:03.330Z,10.90
2023-03-29T00:15:31.411Z,11.27
2023-03-29T00:18:01.830Z,12.33
2023-03-29T00:20:29.875Z,13.20
2023-03-29T00:22:57.940Z,14.03
2023-03-29T00:25:27.303Z,13.03
2023-03-29T00:27:55.323Z,13.37
2023-03-29T00:30:23.330Z,13.57
2023-03-29T00:32:51.833Z,13.93
2023-03-29T00:35:20.181Z,13.83
2023-03-29T00:37:50.792Z,14.40
2023-03-29T00:40:20.541Z,15.10
2023-03-29T00:42:50.123Z,15.10
2023-03-29T00:45:20.087Z,15.60
2023-03-29T00:47:50.690Z,14.90
2023-03-29T00:50:25.727Z,14.50
2023-03-29T00:53:00.102Z,14.87
2023-03-29T00:55:30.487Z,15.17
2023-03-29T00:58:01.606Z,14.20
2023-03-29T01:00:33.030Z,14.60
2023-03-29T01:03:03.513Z,14.13
2023-03-29T01:05:35.299Z,14.30
2023-03-29T01:08:06.637Z,14.90
2023-03-29T01:10:41.431Z,14.97
2023-03-29T01:13:14.110Z,14.27
2023-03-29T01:15:45.010Z,14.63
2023-03-29T01:18:13.893Z,15.00
2023-03-29T01:20:57.839Z,14.70
2023-03-29T01:23:46.898Z,15.17
2023-03-29T01:26:23.328Z,14.03
2023-03-29T01:28:58.354Z,15.77
2023-03-29T01:31:30.361Z,15.77
2023-03-29T01:34:03.410Z,14.63
2023-03-29T01:36:38.937Z,14.90
2023-03-29T01:39:10.824Z,14.80
2023-03-29T01:41:47.373Z,15.70
2023-03-29T01:44:20.654Z,15.80
2023-03-29T01:46:53.359Z,15.73
2023-03-29T01:49:29.795Z,15.67
2023-03-29T01:52:02.386Z,15.97
2023-03-29T01:54:36.603Z,16.70
2023-03-29T01:57:05.983Z,15.30
2023-03-29T01:59:38.420Z,15.87
2023-03-29T02:02:11.541Z,16.63
2023-03-29T02:04:45.810Z,15.80
2023-03-29T02:07:14.500Z,16.60
2023-03-29T02:09:44.798Z,16.67
2023-03-29T02:12:14.595Z,16.87
2023-03-29T02:14:44.008Z,17.90
2023-03-29T02:17:20.233Z,16.60
2023-03-29T02:19:51.195Z,16.90
2023-03-29T02:22:25.392Z,16.30
2023-03-29T02:24:59.154Z,17.57
2023-03-29T02:27:29.099Z,15.97
2023-03-29T02:29:59.231Z,16.27
2023-03-29T02:32:35.438Z,16.50
2023-03-29T02:35:08.190Z,17.03
2023-03-29T02:37:40.957Z,15.97
2023-03-29T02:40:12.631Z,16.73
2023-03-29T02:42:42.088Z,17.23
2023-03-29T02:45:14.075Z,16.60
2023-03-29T02:47:46.311Z,17.57
2023-03-29T02:50:14.632Z,17.20
2023-03-29T02:52:47.095Z,18.80
2023-03-29T02:55:18.722Z,17.57
2023-03-29T02:57:46.745Z,17.40
2023-03-29T03:00:20.143Z,18.73
2023-03-29T03:02:50.691Z,18.47
2023-03-29T03:05:21.728Z,18.10
2023-03-29T03:07:49.700Z,18.27
2023-03-29T03:10:19.146Z,18.73
2023-03-29T03:12:47.122Z,18.57
2023-03-29T03:15:16.707Z,18.23
2023-03-29T03:17:46.535Z,18.73
2023-03-29T03:20:16.911Z,19.03
2023-03-29T03:22:48.930Z,18.70
2023-03-29T03:25:19.412Z,19.67
2023-03-29T03:27:47.496Z,19.10
2023-03-29T03:30:18.488Z,18.27
2023-03-29T03:32:46.546Z,19.07
2023-03-29T03:35:14.663Z,19.03
2023-03-29T03:37:42.892Z,18.40
2023-03-29T03:40:13.542Z,18.80
2023-03-29T03:42:42.143Z,18.80
2023-03-29T03:45:12.240Z,18.90
2023-03-29T03:47:42.269Z,18.80
2023-03-29T03:50:11.538Z,18.93
2023-03-29T03:52:39.638Z,18.63
2023-03-29T03:55:08.244Z,18.20
2023-03-29T03:57:38.295Z,19.43
2023-03-29T04:00:19.358Z,18.07
2023-03-29T04:02:50.008Z,18.20
2023-03-29T04:05:18.467Z,18.30
2023-03-29T04:07:46.596Z,17.53
2023-03-29T04:10:15.686Z,16.97
2023-03-29T04:12:43.911Z,17.73
2023-03-29T04:15:12.199Z,17.53
2023-03-29T04:17:40.456Z,16.87
2023-03-29T04:20:12.596Z,17.37
2023-03-29T04:22:41.166Z,16.90
2023-03-29T04:25:10.418Z,18.10
2023-03-29T04:27:38.565Z,16.90
2023-03-29T04:30:11.795Z,17.80
2023-03-29T04:32:40.010Z,18.60
2023-03-29T04:35:10.573Z,19.23
2023-03-29T04:37:43.287Z,17.10
2023-03-29T04:40:14.171Z,16.90
2023-03-29T04:42:44.389Z,18.00
2023-03-29T04:45:16.464Z,18.17
2023-03-29T04:47:45.216Z,18.33
2023-03-29T04:50:15.700Z,18.27
2023-03-29T04:52:45.518Z,19.57
2023-03-29T04:55:13.583Z,20.03
2023-03-29T04:57:41.627Z,21.13
2023-03-29T05:00:15.110Z,20.03
2023-03-29T05:02:44.111Z,20.47
2023-03-29T05:05:14.188Z,19.30
2023-03-29T05:07:42.196Z,20.90
2023-03-29T05:10:10.740Z,20.20
2023-03-29T05:12:38.757Z,21.27
2023-03-29T05:15:08.125Z,21.93
2023-03-29T05:17:36.521Z,21.10
2023-03-29T05:20:09.453Z,21.97
2023-03-29T05:22:40.219Z,20.60
2023-03-29T05:25:10.893Z,21.47
2023-03-29T05:27:38.865Z,22.93
2023-03-29T05:30:08.861Z,22.90
2023-03-29T05:32:38.309Z,23.27
2023-03-29T05:35:06.815Z,23.60
2023-03-29T05:37:35.064Z,24.20
2023-03-29T05:40:10.030Z,23.20
2023-03-29T05:42:38.644Z,24.33
2023-03-29T05:45:07.707Z,24.07
2023-03-29T05:47:36.103Z,24.57
2023-03-29T05:50:08.922Z,24.93
2023-03-29T05:52:37.936Z,24.30
2023-03-29T05:55:08.742Z,24.87
2023-03-29T05:57:37.564Z,23.87
2023-03-29T06:00:14.740Z,24.90
2023-03-29T06:02:43.804Z,23.60
2023-03-29T06:05:11.863Z,24.77
2023-03-29T06:07:39.851Z,23.27
2023-03-29T06:10:10.589Z,23.20
2023-03-29T06:12:38.600Z,21.77
2023-03-29T06:15:08.461Z,21.90
2023-03-29T06:17:40.022Z,21.00
2023-03-29T06:20:11.004Z,20.43
2023-03-29T06:22:39.270Z,20.67
2023-03-29T06:25:10.974Z,19.17
2023-03-29T06:27:39.198Z,19.70
2023-03-29T06:30:08.462Z,19.33
2023-03-29T06:32:36.770Z,18.63
2023-03-29T06:35:05.342Z,17.17
2023-03-29T06:37:33.899Z,17.03
2023-03-29T06:40:02.473Z,16.03
2023-03-29T06:42:32.474Z,16.33
2023-03-29T06:45:00.521Z,17.23
2023-03-29T06:47:30.914Z,16.87
2023-03-29T06:49:59.268Z,16.57
2023-03-29T06:52:27.225Z,16.73
2023-03-29T06:54:57.957Z,16.63
2023-03-29T06:57:26.115Z,16.20
2023-03-29T06:59:55.637Z,15.07
2023-03-29T07:02:23.714Z,14.77
2023-03-29T07:04:51.785Z,14.37
2023-03-29T07:07:22.644Z,13.47
2023-03-29T07:09:54.032Z,12.70
2023-03-29T07:12:22.961Z,14.40
2023-03-29T07:14:50.942Z,14.07
2023-03-29T07:17:20.271Z,12.70
2023-03-29T07:19:51.139Z,13.50
2023-03-29T07:22:19.400Z,12.93
2023-03-29T07:24:47.374Z,13.13
2023-03-29T07:27:16.253Z,13.53
2023-03-29T07:29:44.234Z,12.90
2023-03-29T07:32:12.370Z,11.83
2023-03-29T07:34:44.609Z,11.97
2023-03-29T07:37:12.663Z,11.33
2023-03-29T07:39:40.715Z,10.60
2023-03-29T07:42:09.004Z,11.30
2023-03-29T07:44:37.391Z,10.77
2023-03-29T07:47:05.508Z,10.43
2023-03-29T07:49:33.631Z,9.53
2023-03-29T07:52:03.713Z,9.47
2023-03-29T07:54:32.482Z,9.30
2023-03-29T07:57:03.604Z,10.50
2023-03-29T07:59:31.646Z,9.10
2023-03-29T08:01:59.648Z,9.40
2023-03-29T08:04:27.699Z,8.97
2023-03-29T08:06:55.789Z,8.47
2023-03-29T08:09:25.955Z,7.40
2023-03-29T08:11:53.987Z,6.53
2023-03-29T08:14:24.763Z,5.80
2023-03-29T08:16:53.057Z,5.90
2023-03-29T08:19:21.235Z,5.50
2023-03-29T08:21:49.380Z,5.37
2023-03-29T08:24:19.787Z,5.50
2023-03-29T08:26:50.333Z,4.97
2023-03-29T08:29:18.329Z,4.23
2023-03-29T08:31:46.343Z,3.93
2023-03-29T08:34:14.337Z,4.10
2023-03-29T08:36:42.367Z,3.80
2023-03-29T08:39:13.628Z,4.43
2023-03-29T08:41:54.736Z,4.10
2023-03-29T08:44:37.911Z,3.60
2023-03-29T08:47:12.606Z,3.63
2023-03-29T08:49:42.659Z,3.33
2023-03-29T08:52:20.954Z,3.87
2023-03-29T08:54:51.701Z,3.50
2023-03-29T08:57:25.934Z,3.43
2023-03-29T08:59:56.615Z,3.27
2023-03-29T09:02:27.059Z,2.97
2023-03-29T09:05:00.012Z,2.93
2023-03-29T09:07:28.446Z,3.13
2023-03-29T09:09:57.043Z,3.20
2023-03-29T09:12:42.256Z,3.83
2023-03-29T09:15:16.635Z,3.50
2023-03-29T09:17:53.653Z,3.70
2023-03-29T09:20:39.748Z,3.33
2023-03-29T09:23:40.039Z,4.10
2023-03-29T09:26:18.173Z,3.60
2023-03-29T09:28:57.247Z,3.30
2023-03-29T09:31:30.740Z,3.80
2023-03-29T09:34:00.593Z,3.57
2023-03-29T09:36:37.036Z,4.13
2023-03-29T09:39:06.166Z,3.90
2023-03-29T09:41:37.459Z,4.30
2023-03-29T09:44:20.752Z,4.20
2023-03-29T09:47:01.907Z,3.70
2023-03-29T09:49:34.026Z,3.50
2023-03-29T09:52:06.699Z,3.60
2023-03-29T09:54:34.698Z,4.10
2023-03-29T09:57:03.235Z,3.70
2023-03-29T09:59:32.701Z,4.00
2023-03-29T10:02:08.654Z,4.03
2023-03-29T10:04:36.802Z,4.30
2023-03-29T10:07:05.706Z,4.00
2023-03-29T10:09:34.237Z,4.20
2023-03-29T10:12:06.701Z,3.97
2023-03-29T10:14:39.201Z,3.93
2023-03-29T10:17:17.763Z,4.37
2023-03-29T10:19:50.923Z,3.60
2023-03-29T10:22:22.905Z,3.80
2023-03-29T10:24:52.601Z,3.00
2023-03-29T10:27:23.241Z,2.80
2023-03-29T10:29:55.975Z,2.93
2023-03-29T10:32:31.456Z,2.97
2023-03-29T10:35:03.823Z,2.70
2023-03-29T10:37:37.113Z,3.00
2023-03-29T10:40:06.636Z,3.13
2023-03-29T10:42:34.591Z,3.47
2023-03-29T10:45:04.130Z,3.00
2023-03-29T10:47:34.348Z,2.97
2023-03-29T10:50:06.693Z,2.90
2023-03-29T10:52:35.699Z,3.17
2023-03-29T10:55:03.861Z,2.73
2023-03-29T10:57:41.815Z,2.73
2023-03-29T11:00:18.719Z,3.57
2023-03-29T11:02:59.073Z,2.70
2023-03-29T11:05:33.262Z,2.67
2023-03-29T11:08:19.686Z,2.77
2023-03-29T11:10:58.416Z,2.93
2023-03-29T11:13:35.852Z,3.03
2023-03-29T11:16:20.028Z,3.10
2023-03-29T11:19:18.085Z,2.80
2023-03-29T11:21:53.278Z,2.30
2023-03-29T11:24:49.745Z,2.27
2023-03-29T11:27:27.367Z,2.50
2023-03-29T11:30:06.357Z,2.30
2023-03-29T11:32:46.243Z,2.00
2023-03-29T11:35:33.312Z,2.03
2023-03-29T11:38:06.769Z,1.50
2023-03-29T11:40:47.843Z,1.80
2023-03-29T11:43:21.444Z,1.90
2023-03-29T11:45:53.638Z,1.90
2023-03-29T11:48:34.750Z,2.03
2023-03-29T11:51:12.154Z,1.97
2023-03-29T11:53:47.391Z,1.97
2023-03-29T11:56:21.118Z,2.07
2023-03-29T11:58:58.768Z,2.50
2023-03-29T12:01:36.620Z,2.30
2023-03-29T12:04:12.249Z,2.10
2023-03-29T12:06:47.821Z,2.33
2023-03-29T12:09:26.524Z,2.10
2023-03-29T12:12:03.008Z,2.63
2023-03-29T12:14:44.369Z,2.30
2023-03-29T12:17:17.837Z,2.40
2023-03-29T12:19:54.440Z,2.37
2023-03-29T12:22:25.449Z,2.00
2023-03-29T12:24:58.423Z,2.00
2023-03-29T12:27:30.979Z,1.83
2023-03-29T12:30:25.025Z,1.80
2023-03-29T12:33:33.930Z,2.10
2023-03-29T12:36:17.397Z,1.73
2023-03-29T12:38:50.797Z,1.90
2023-03-29T12:41:21.678Z,1.87
2023-03-29T12:43:50.430Z,2.00
2023-03-29T12:46:21.237Z,1.90
2023-03-29T12:48:52.292Z,1.63
2023-03-29T12:51:28.312Z,1.80
2023-03-29T12:54:03.284Z,1.70
2023-03-29T12:56:42.263Z,1.80
2023-03-29T12:59:27.023Z,2.03
2023-03-29T13:02:44.501Z,1.70
2023-03-29T13:05:28.511Z,1.90
2023-03-29T13:07:57.893Z,1.63
2023-03-29T13:10:42.377Z,1.70
2023-03-29T13:13:16.540Z,1.53
2023-03-29T13:15:46.761Z,1.80
2023-03-29T13:18:41.373Z,1.70
2023-03-29T13:21:18.711Z,1.90
2023-03-29T13:23:59.806Z,1.60
2023-03-29T13:26:44.354Z,1.80
2023-03-29T13:29:35.249Z,1.70
2023-03-29T13:32:12.171Z,1.77
2023-03-29T13:34:47.271Z,1.57
2023-03-29T13:37:30.201Z,2.40
2023-03-29T13:40:00.184Z,2.10
2023-03-29T13:42:42.409Z,1.63
2023-03-29T13:45:17.597Z,1.87
2023-03-29T13:47:58.666Z,1.80
2023-03-29T13:50:37.252Z,2.10
2023-03-29T13:53:11.799Z,2.00
2023-03-29T13:55:48.196Z,2.10
2023-03-29T13:58:27.627Z,2.00
2023-03-29T14:01:02.303Z,1.80
2023-03-29T14:03:33.786Z,2.03
2023-03-29T14:06:04.846Z,1.90
2023-03-29T14:08:37.999Z,1.90
2023-03-29T14:11:13.158Z,2.03
2023-03-29T14:13:43.878Z,2.10
2023-03-29T14:16:13.776Z,2.23
2023-03-29T14:18:44.563Z,2.00
2023-03-29T14:21:14.886Z,2.30
2023-03-29T14:23:46.123Z,2.30
2023-03-29T14:26:21.979Z,2.30
2023-03-29T14:28:52.116Z,2.50
2023-03-29T14:31:20.935Z,2.40
2023-03-29T14:33:53.730Z,2.37
2023-03-29T14:36:25.076Z,2.33
2023-03-29T14:38:57.859Z,2.57
2023-03-29T14:41:31.617Z,2.97
2023-03-29T14:44:00.988Z,2.60
2023-03-29T14:46:29.229Z,2.50
2023-03-29T14:49:02.168Z,2.80
2023-03-29T14:51:31.244Z,3.47
2023-03-29T14:53:59.902Z,3.40
2023-03-29T14:56:30.101Z,3.40
2023-03-29T14:58:58.560Z,3.33
2023-03-29T15:01:27.907Z,3.30
2023-03-29T15:04:04.999Z,3.03
2023-03-29T15:06:39.182Z,2.80
2023-03-29T15:09:07.501Z,2.60
2023-03-29T15:11:39.914Z,2.43
2023-03-29T15:14:10.519Z,2.70
2023-03-29T15:16:41.660Z,2.70
2023-03-29T15:19:16.974Z,2.87
2023-03-29T15:21:47.829Z,3.80
2023-03-29T15:24:23.054Z,5.57
2023-03-29T15:27:05.879Z,4.03
2023-03-29T15:29:41.761Z,3.87
2023-03-29T15:32:11.694Z,4.17
2023-03-29T15:34:42.131Z,3.50
2023-03-29T15:37:13.578Z,3.70
2023-03-29T15:39:44.940Z,3.20
2023-03-29T15:42:16.607Z,2.97
2023-03-29T15:44:44.762Z,3.37
2023-03-29T15:47:15.110Z,3.47
2023-03-29T15:49:43.134Z,3.80
2023-03-29T15:52:11.140Z,3.70
2023-03-29T15:54:39.121Z,3.50
2023-03-29T15:57:08.910Z,4.03
2023-03-29T15:59:38.397Z,3.87
2023-03-29T16:02:07.789Z,3.67
2023-03-29T16:04:35.815Z,3.70
2023-03-29T16:07:04.168Z,3.60
2023-03-29T16:09:32.335Z,3.90
2023-03-29T16:12:03.946Z,4.13
2023-03-29T16:14:33.174Z,4.20
2023-03-29T16:17:04.715Z,5.73
2023-03-29T16:19:33.983Z,5.27
2023-03-29T16:22:05.119Z,4.60
2023-03-29T16:24:34.313Z,4.50
2023-03-29T16:27:03.091Z,13.17
2023-03-29T16:29:31.670Z,5.67
2023-03-29T16:31:59.793Z,6.27
2023-03-29T16:34:29.990Z,4.00
2023-03-29T16:36:58.089Z,4.33
2023-03-29T16:39:26.208Z,5.27
2023-03-29T16:41:54.344Z,4.50
2023-03-29T16:44:24.600Z,4.10
2023-03-29T16:46:53.850Z,3.73
2023-03-29T16:49:25.069Z,6.47
2023-03-29T16:51:54.459Z,5.10
2023-03-29T16:54:26.081Z,4.30
2023-03-29T16:56:54.613Z,4.30
2023-03-29T16:59:22.897Z,4.33
2023-03-29T17:01:51.027Z,5.70
2023-03-29T17:04:19.258Z,5.97
2023-03-29T17:06:47.377Z,5.53
2023-03-29T17:09:17.554Z,5.73
2023-03-29T17:11:45.767Z,5.60
2023-03-29T17:14:13.796Z,5.30
2023-03-29T17:16:41.844Z,4.87
2023-03-29T17:19:09.870Z,4.90
2023-03-29T17:21:37.901Z,4.33
2023-03-29T17:24:06.213Z,4.70
2023-03-29T17:26:35.906Z,6.63
2023-03-29T17:29:04.148Z,9.03
2023-03-29T17:31:34.793Z,7.13
2023-03-29T17:34:03.437Z,5.80
2023-03-29T17:36:33.715Z,5.80
2023-03-29T17:39:02.811Z,4.43
2023-03-29T17:41:31.430Z,5.07
2023-03-29T17:44:02.823Z,4.80
2023-03-29T17:46:33.993Z,5.70
2023-03-29T17:49:04.449Z,4.67
2023-03-29T17:51:32.487Z,4.83
2023-03-29T17:54:00.542Z,4.43
2023-03-29T17:56:31.960Z,4.83
2023-03-29T17:59:01.470Z,4.40
2023-03-29T18:01:29.590Z,4.33
2023-03-29T18:03:58.166Z,4.40
2023-03-29T18:06:26.215Z,4.43
2023-03-29T18:09:01.333Z,5.17
2023-03-29T18:11:32.745Z,5.53
2023-03-29T18:14:21.215Z,6.10
2023-03-29T18:16:49.635Z,6.27
2023-03-29T18:19:23.788Z,5.60
2023-03-29T18:21:54.786Z,5.67
2023-03-29T18:24:25.245Z,4.97
2023-03-29T18:26:53.457Z,4.90
2023-03-29T18:29:35.260Z,4.93
2023-03-29T18:32:07.158Z,4.73
2023-03-29T18:34:35.694Z,4.50
2023-03-29T18:37:04.092Z,4.70
2023-03-29T18:39:34.697Z,4.73
2023-03-29T18:42:03.186Z,4.73
2023-03-29T18:44:33.081Z,5.37
2023-03-29T18:47:01.610Z,4.73
2023-03-29T18:49:29.649Z,5.13
2023-03-29T18:52:00.334Z,5.30
2023-03-29T18:54:33.064Z,5.30
2023-03-29T18:57:02.672Z,5.70
2023-03-29T18:59:36.645Z,5.40
2023-03-29T19:02:05.407Z,5.63
2023-03-29T19:04:33.690Z,5.53
2023-03-29T19:07:02.101Z,5.80
2023-03-29T19:09:33.685Z,5.70
2023-03-29T19:12:06.169Z,5.67
2023-03-29T19:14:35.604Z,5.57
2023-03-29T19:17:03.670Z,4.93
2023-03-29T19:19:31.733Z,6.00
2023-03-29T19:22:00.784Z,6.40
2023-03-29T19:24:30.932Z,6.73
2023-03-29T19:27:01.740Z,8.00
2023-03-29T19:29:30.011Z,6.97
2023-03-29T19:31:59.763Z,7.50
2023-03-29T19:34:29.181Z,7.67
2023-03-29T19:36:58.462Z,8.33
2023-03-29T19:39:29.283Z,7.37
2023-03-29T19:41:57.742Z,8.20
2023-03-29T19:44:28.012Z,7.97
2023-03-29T19:46:56.961Z,8.90
2023-03-29T19:49:26.480Z,8.00
2023-03-29T19:51:55.516Z,8.80
2023-03-29T19:54:26.134Z,8.00
2023-03-29T19:56:59.062Z,8.80
2023-03-29T19:59:27.933Z,9.07
2023-03-29T20:01:56.806Z,9.73
2023-03-29T20:04:28.773Z,10.13
2023-03-29T20:06:57.504Z,10.33
2023-03-29T20:09:25.700Z,12.97
2023-03-29T20:11:54.024Z,13.80
2023-03-29T20:14:23.949Z,17.97
2023-03-29T20:16:52.303Z,18.53
2023-03-29T20:19:23.985Z,18.87
2023-03-29T20:21:55.056Z,18.83
2023-03-29T20:24:23.513Z,18.17
2023-03-29T20:26:51.812Z,18.27
2023-03-29T20:29:20.257Z,18.00
2023-03-29T20:31:48.729Z,17.50
2023-03-29T20:34:18.147Z,16.60
2023-03-29T20:36:46.685Z,16.20
2023-03-29T20:39:18.624Z,16.53
2023-03-29T20:41:47.794Z,16.43
2023-03-29T20:44:18.445Z,16.13
2023-03-29T20:46:54.372Z,14.40
2023-03-29T20:49:26.561Z,15.63
2023-03-29T20:51:58.744Z,15.63
2023-03-29T20:54:28.200Z,15.77
2023-03-29T20:56:57.740Z,16.17
2023-03-29T20:59:27.531Z,17.10
2023-03-29T21:01:55.579Z,18.90
2023-03-29T21:04:26.584Z,16.50
2023-03-29T21:06:56.117Z,19.00
2023-03-29T21:09:25.446Z,18.30
2023-03-29T21:11:56.881Z,18.67
2023-03-29T21:14:26.675Z,17.03
2023-03-29T21:16:54.662Z,18.53
2023-03-29T21:19:25.655Z,19.57
2023-03-29T21:21:56.986Z,18.53
2023-03-29T21:24:24.968Z,17.13
2023-03-29T21:26:54.342Z,17.13
2023-03-29T21:29:22.679Z,17.07
2023-03-29T21:31:50.720Z,17.17
2023-03-29T21:34:18.780Z,17.67
2023-03-29T21:36:46.802Z,17.63
2023-03-29T21:39:14.832Z,16.80
2023-03-29T21:41:43.059Z,18.80
2023-03-29T21:44:12.750Z,18.57
2023-03-29T21:46:44.467Z,19.40
2023-03-29T21:49:12.516Z,18.73
2023-03-29T21:51:40.559Z,19.47
2023-03-29T21:54:08.524Z,18.87
2023-03-29T21:56:39.568Z,19.63
2023-03-29T21:59:07.760Z,20.67
2023-03-29T22:01:37.100Z,20.70
2023-03-29T22:04:05.231Z,20.33
2023-03-29T22:06:33.428Z,20.10
2023-03-29T22:09:03.122Z,20.33
2023-03-29T22:11:32.214Z,20.00
2023-03-29T22:14:02.146Z,20.50
2023-03-29T22:16:31.329Z,20.60
2023-03-29T22:19:00.742Z,20.37
2023-03-29T22:21:31.748Z,21.00
2023-03-29T22:24:01.498Z,20.77
2023-03-29T22:26:31.475Z,19.60
2023-03-29T22:29:01.073Z,20.80
2023-03-29T22:31:30.660Z,19.83
2023-03-29T22:34:01.966Z,19.60
2023-03-29T22:36:31.672Z,21.37
2023-03-29T22:38:59.849Z,21.07
2023-03-29T22:41:28.717Z,21.30
2023-03-29T22:44:01.936Z,22.53
2023-03-29T22:46:30.431Z,21.53
2023-03-29T22:48:59.943Z,21.63
2023-03-29T22:51:28.179Z,21.00
2023-03-29T22:53:56.533Z,20.33
2023-03-29T22:56:24.785Z,22.83
2023-03-29T22:58:53.052Z,21.10
2023-03-29T23:01:21.111Z,21.27
2023-03-29T23:03:49.203Z,22.80
2023-03-29T23:06:18.556Z,21.03
2023-03-29T23:08:46.586Z,21.47
2023-03-29T23:11:14.562Z,20.40
2023-03-29T23:13:42.914Z,20.10
2023-03-29T23:16:11.123Z,19.67
2023-03-29T23:18:39.173Z,20.53
2023-03-29T23:21:08.885Z,19.87
2023-03-29T23:23:38.549Z,20.63
2023-03-29T23:26:08.355Z,20.77
2023-03-29T23:28:36.458Z,21.50
2023-03-29T23:31:06.517Z,21.87
2023-03-29T23:33:36.126Z,22.57
2023-03-29T23:36:06.322Z,22.73
2023-03-29T23:38:35.306Z,20.17
2023-03-29T23:41:08.351Z,20.13
2023-03-29T23:43:40.281Z,20.17
2023-03-29T23:46:10.400Z,18.07
2023-03-29T23:48:39.191Z,18.93
2023-03-29T23:51:09.837Z,19.53
2023-03-29T23:53:38.189Z,19.20
2023-03-29T23:56:09.102Z,19.77
2023-03-29T23:58:38.817Z,18.67
